sensor_id;sensor_type;location;lat;lon;timestamp;P1;durP1;ratioP1;P2;durP2;ratioP2
44328;SDS011;30039;51.462;6.892;2024-02-26T00:02:40;3.90;;;1.80;;
44328;SDS011;30039;51.462;6.892;2024-02-26T00:05:26;4.13;;;1.75;;
44328;SDS011;30039;51.462;6.892;2024-02-26T00:08:12;5.07;;;2.10;;
44328;SDS011;30039;51.462;6.892;2024-02-26T00:10:57;3.47;;;1.85;;
44328;SDS011;30039;51.462;6.892;2024-02-26T00:13:43;2.88;;;1.70;;
44328;SDS011;30039;51.462;6.892;2024-02-26T00:16:28;5.05;;;2.00;;
44328;SDS011;30039;51.462;6.892;2024-02-26T00:19:14;3.58;;;1.65;;
44328;SDS011;30039;51.462;6.892;2024-02-26T00:22:00;4.13;;;1.95;;
44328;SDS011;30039;51.462;6.892;2024-02-26T00:24:45;4.45;;;1.80;;
44328;SDS011;30039;51.462;6.892;2024-02-26T00:27:31;5.15;;;1.73;;
44328;SDS011;30039;51.462;6.892;2024-02-26T00:30:16;3.17;;;1.70;;
44328;SDS011;30039;51.462;6.892;2024-02-26T00:33:02;4.18;;;1.65;;
44328;SDS011;30039;51.462;6.892;2024-02-26T00:35:48;3.13;;;1.77;;
44328;SDS011;30039;51.462;6.892;2024-02-26T00:38:34;3.25;;;1.63;;
44328;SDS011;30039;51.462;6.892;2024-02-26T00:41:20;2.75;;;1.60;;
44328;SDS011;30039;51.462;6.892;2024-02-26T00:44:06;3.72;;;1.50;;
44328;SDS011;30039;51.462;6.892;2024-02-26T00:46:51;2.53;;;1.40;;
44328;SDS011;30039;51.462;6.892;2024-02-26T00:49:39;2.13;;;1.30;;
44328;SDS011;30039;51.462;6.892;2024-02-26T00:52:25;4.35;;;1.63;;
44328;SDS011;30039;51.462;6.892;2024-02-26T00:55:10;4.10;;;1.42;;
44328;SDS011;30039;51.462;6.892;2024-02-26T00:57:56;3.08;;;1.75;;
44328;SDS011;30039;51.462;6.892;2024-02-26T01:00:41;2.63;;;1.45;;
44328;SDS011;30039;51.462;6.892;2024-02-26T01:03:27;2.67;;;1.33;;
44328;SDS011;30039;51.462;6.892;2024-02-26T01:06:12;2.40;;;1.67;;
44328;SDS011;30039;51.462;6.892;2024-02-26T01:08:58;3.10;;;1.85;;
44328;SDS011;30039;51.462;6.892;2024-02-26T01:11:43;3.45;;;2.00;;
44328;SDS011;30039;51.462;6.892;2024-02-26T01:14:29;4.28;;;1.70;;
44328;SDS011;30039;51.462;6.892;2024-02-26T01:17:14;4.50;;;1.75;;
44328;SDS011;30039;51.462;6.892;2024-02-26T01:20:00;5.32;;;2.05;;
44328;SDS011;30039;51.462;6.892;2024-02-26T01:22:45;2.42;;;1.58;;
44328;SDS011;30039;51.462;6.892;2024-02-26T01:25:31;3.10;;;1.60;;
44328;SDS011;30039;51.462;6.892;2024-02-26T01:28:16;2.60;;;1.67;;
44328;SDS011;30039;51.462;6.892;2024-02-26T01:31:02;3.03;;;1.80;;
44328;SDS011;30039;51.462;6.892;2024-02-26T01:33:50;2.95;;;1.88;;
44328;SDS011;30039;51.462;6.892;2024-02-26T01:36:36;3.63;;;1.73;;
44328;SDS011;30039;51.462;6.892;2024-02-26T01:39:21;3.17;;;1.83;;
44328;SDS011;30039;51.462;6.892;2024-02-26T01:42:10;4.57;;;1.80;;
44328;SDS011;30039;51.462;6.892;2024-02-26T01:44:55;3.40;;;1.70;;
44328;SDS011;30039;51.462;6.892;2024-02-26T01:47:41;2.67;;;1.55;;
44328;SDS011;30039;51.462;6.892;2024-02-26T01:50:27;4.07;;;1.80;;
44328;SDS011;30039;51.462;6.892;2024-02-26T01:53:12;4.38;;;2.05;;
44328;SDS011;30039;51.462;6.892;2024-02-26T01:55:58;4.20;;;2.00;;
44328;SDS011;30039;51.462;6.892;2024-02-26T01:58:44;3.35;;;1.85;;
44328;SDS011;30039;51.462;6.892;2024-02-26T02:01:30;4.88;;;2.10;;
44328;SDS011;30039;51.462;6.892;2024-02-26T02:04:16;3.10;;;1.65;;
44328;SDS011;30039;51.462;6.892;2024-02-26T02:07:02;3.63;;;1.90;;
44328;SDS011;30039;51.462;6.892;2024-02-26T02:09:47;2.90;;;1.75;;
44328;SDS011;30039;51.462;6.892;2024-02-26T02:12:33;5.72;;;1.77;;
44328;SDS011;30039;51.462;6.892;2024-02-26T02:15:19;2.97;;;1.80;;
44328;SDS011;30039;51.462;6.892;2024-02-26T02:18:05;3.95;;;1.80;;
44328;SDS011;30039;51.462;6.892;2024-02-26T02:20:51;2.65;;;1.73;;
44328;SDS011;30039;51.462;6.892;2024-02-26T02:23:36;2.45;;;1.63;;
44328;SDS011;30039;51.462;6.892;2024-02-26T02:26:22;3.97;;;2.00;;
44328;SDS011;30039;51.462;6.892;2024-02-26T02:29:07;4.38;;;1.80;;
44328;SDS011;30039;51.462;6.892;2024-02-26T02:31:54;3.10;;;1.90;;
44328;SDS011;30039;51.462;6.892;2024-02-26T02:34:40;3.88;;;2.05;;
44328;SDS011;30039;51.462;6.892;2024-02-26T02:37:26;4.22;;;2.22;;
44328;SDS011;30039;51.462;6.892;2024-02-26T02:40:12;2.67;;;1.90;;
44328;SDS011;30039;51.462;6.892;2024-02-26T02:42:57;4.03;;;1.95;;
44328;SDS011;30039;51.462;6.892;2024-02-26T02:45:44;3.85;;;2.05;;
44328;SDS011;30039;51.462;6.892;2024-02-26T02:48:29;3.78;;;1.90;;
44328;SDS011;30039;51.462;6.892;2024-02-26T02:51:15;3.88;;;2.10;;
44328;SDS011;30039;51.462;6.892;2024-02-26T02:54:00;3.90;;;2.03;;
44328;SDS011;30039;51.462;6.892;2024-02-26T02:56:46;3.60;;;1.95;;
44328;SDS011;30039;51.462;6.892;2024-02-26T02:59:31;3.47;;;1.90;;
44328;SDS011;30039;51.462;6.892;2024-02-26T03:02:17;2.40;;;1.70;;
44328;SDS011;30039;51.462;6.892;2024-02-26T03:05:03;5.30;;;1.90;;
44328;SDS011;30039;51.462;6.892;2024-02-26T03:07:48;2.65;;;1.50;;
44328;SDS011;30039;51.462;6.892;2024-02-26T03:10:34;5.53;;;1.90;;
44328;SDS011;30039;51.462;6.892;2024-02-26T03:13:20;3.28;;;1.92;;
44328;SDS011;30039;51.462;6.892;2024-02-26T03:16:05;2.70;;;1.70;;
44328;SDS011;30039;51.462;6.892;2024-02-26T03:18:51;4.97;;;1.75;;
44328;SDS011;30039;51.462;6.892;2024-02-26T03:21:37;2.70;;;1.67;;
44328;SDS011;30039;51.462;6.892;2024-02-26T03:24:22;4.25;;;1.73;;
44328;SDS011;30039;51.462;6.892;2024-02-26T03:27:08;2.33;;;1.65;;
44328;SDS011;30039;51.462;6.892;2024-02-26T03:29:54;3.55;;;1.67;;
44328;SDS011;30039;51.462;6.892;2024-02-26T03:32:40;3.75;;;1.90;;
44328;SDS011;30039;51.462;6.892;2024-02-26T03:35:25;6.28;;;2.30;;
44328;SDS011;30039;51.462;6.892;2024-02-26T03:38:11;2.70;;;1.65;;
44328;SDS011;30039;51.462;6.892;2024-02-26T03:40:56;2.97;;;1.80;;
44328;SDS011;30039;51.462;6.892;2024-02-26T03:43:42;3.55;;;1.98;;
44328;SDS011;30039;51.462;6.892;2024-02-26T03:46:27;4.15;;;2.17;;
44328;SDS011;30039;51.462;6.892;2024-02-26T03:49:13;3.35;;;2.00;;
44328;SDS011;30039;51.462;6.892;2024-02-26T03:51:58;2.97;;;1.83;;
44328;SDS011;30039;51.462;6.892;2024-02-26T03:54:44;3.80;;;2.10;;
44328;SDS011;30039;51.462;6.892;2024-02-26T03:57:29;3.70;;;2.00;;
44328;SDS011;30039;51.462;6.892;2024-02-26T04:00:15;2.95;;;1.90;;
44328;SDS011;30039;51.462;6.892;2024-02-26T04:03:01;2.72;;;2.00;;
44328;SDS011;30039;51.462;6.892;2024-02-26T04:05:47;2.92;;;1.88;;
44328;SDS011;30039;51.462;6.892;2024-02-26T04:08:33;3.55;;;1.98;;
44328;SDS011;30039;51.462;6.892;2024-02-26T04:11:18;3.10;;;1.90;;
44328;SDS011;30039;51.462;6.892;2024-02-26T04:14:04;2.40;;;1.63;;
44328;SDS011;30039;51.462;6.892;2024-02-26T04:16:51;3.17;;;2.00;;
44328;SDS011;30039;51.462;6.892;2024-02-26T04:19:39;3.72;;;1.98;;
44328;SDS011;30039;51.462;6.892;2024-02-26T04:22:25;3.22;;;2.03;;
44328;SDS011;30039;51.462;6.892;2024-02-26T04:25:11;3.53;;;2.22;;
44328;SDS011;30039;51.462;6.892;2024-02-26T04:27:56;3.72;;;2.25;;
44328;SDS011;30039;51.462;6.892;2024-02-26T04:30:42;4.07;;;2.13;;
44328;SDS011;30039;51.462;6.892;2024-02-26T04:33:27;7.05;;;2.28;;
44328;SDS011;30039;51.462;6.892;2024-02-26T04:36:13;4.45;;;2.28;;
44328;SDS011;30039;51.462;6.892;2024-02-26T04:39:00;3.42;;;2.05;;
44328;SDS011;30039;51.462;6.892;2024-02-26T04:41:46;3.92;;;2.20;;
44328;SDS011;30039;51.462;6.892;2024-02-26T04:44:31;5.50;;;2.28;;
44328;SDS011;30039;51.462;6.892;2024-02-26T04:47:16;4.38;;;2.05;;
44328;SDS011;30039;51.462;6.892;2024-02-26T04:50:02;4.78;;;2.35;;
44328;SDS011;30039;51.462;6.892;2024-02-26T04:52:48;3.40;;;2.08;;
44328;SDS011;30039;51.462;6.892;2024-02-26T04:55:33;4.18;;;2.40;;
44328;SDS011;30039;51.462;6.892;2024-02-26T04:58:19;3.95;;;2.00;;
44328;SDS011;30039;51.462;6.892;2024-02-26T05:01:04;4.75;;;2.28;;
44328;SDS011;30039;51.462;6.892;2024-02-26T05:03:50;2.75;;;1.90;;
44328;SDS011;30039;51.462;6.892;2024-02-26T05:06:36;3.70;;;2.17;;
44328;SDS011;30039;51.462;6.892;2024-02-26T05:09:21;3.58;;;2.00;;
44328;SDS011;30039;51.462;6.892;2024-02-26T05:12:07;3.72;;;2.45;;
44328;SDS011;30039;51.462;6.892;2024-02-26T05:14:53;4.72;;;2.28;;
44328;SDS011;30039;51.462;6.892;2024-02-26T05:17:38;4.45;;;2.10;;
44328;SDS011;30039;51.462;6.892;2024-02-26T05:20:24;4.53;;;2.38;;
44328;SDS011;30039;51.462;6.892;2024-02-26T05:23:09;4.03;;;2.60;;
44328;SDS011;30039;51.462;6.892;2024-02-26T05:25:55;6.22;;;2.53;;
44328;SDS011;30039;51.462;6.892;2024-02-26T05:28:41;3.42;;;2.30;;
44328;SDS011;30039;51.462;6.892;2024-02-26T05:31:26;3.40;;;2.33;;
44328;SDS011;30039;51.462;6.892;2024-02-26T05:34:12;5.55;;;2.58;;
44328;SDS011;30039;51.462;6.892;2024-02-26T05:36:58;3.78;;;2.33;;
44328;SDS011;30039;51.462;6.892;2024-02-26T05:39:43;4.45;;;2.30;;
44328;SDS011;30039;51.462;6.892;2024-02-26T05:42:29;5.07;;;2.30;;
44328;SDS011;30039;51.462;6.892;2024-02-26T05:45:14;4.72;;;2.17;;
44328;SDS011;30039;51.462;6.892;2024-02-26T05:48:00;3.75;;;2.20;;
44328;SDS011;30039;51.462;6.892;2024-02-26T05:50:46;3.08;;;2.20;;
44328;SDS011;30039;51.462;6.892;2024-02-26T05:53:31;4.10;;;2.33;;
44328;SDS011;30039;51.462;6.892;2024-02-26T05:56:17;3.50;;;2.15;;
44328;SDS011;30039;51.462;6.892;2024-02-26T05:59:02;4.10;;;2.00;;
44328;SDS011;30039;51.462;6.892;2024-02-26T06:01:48;5.35;;;2.70;;
44328;SDS011;30039;51.462;6.892;2024-02-26T06:04:33;5.10;;;2.20;;
44328;SDS011;30039;51.462;6.892;2024-02-26T06:07:19;4.80;;;2.40;;
44328;SDS011;30039;51.462;6.892;2024-02-26T06:10:05;3.13;;;2.13;;
44328;SDS011;30039;51.462;6.892;2024-02-26T06:12:51;3.97;;;2.20;;
44328;SDS011;30039;51.462;6.892;2024-02-26T06:15:36;4.65;;;2.45;;
44328;SDS011;30039;51.462;6.892;2024-02-26T06:18:22;4.20;;;2.20;;
44328;SDS011;30039;51.462;6.892;2024-02-26T06:21:11;3.88;;;2.58;;
44328;SDS011;30039;51.462;6.892;2024-02-26T06:23:56;5.22;;;2.70;;
44328;SDS011;30039;51.462;6.892;2024-02-26T06:26:42;3.80;;;2.60;;
44328;SDS011;30039;51.462;6.892;2024-02-26T06:29:27;4.85;;;2.50;;
44328;SDS011;30039;51.462;6.892;2024-02-26T06:32:13;3.67;;;2.63;;
44328;SDS011;30039;51.462;6.892;2024-02-26T06:34:59;4.30;;;2.85;;
44328;SDS011;30039;51.462;6.892;2024-02-26T06:37:44;4.80;;;2.35;;
44328;SDS011;30039;51.462;6.892;2024-02-26T06:40:30;3.78;;;2.47;;
44328;SDS011;30039;51.462;6.892;2024-02-26T06:43:16;4.57;;;2.47;;
44328;SDS011;30039;51.462;6.892;2024-02-26T06:46:01;4.90;;;2.67;;
44328;SDS011;30039;51.462;6.892;2024-02-26T06:48:47;5.60;;;2.95;;
44328;SDS011;30039;51.462;6.892;2024-02-26T06:51:33;3.58;;;2.50;;
44328;SDS011;30039;51.462;6.892;2024-02-26T06:54:21;4.60;;;2.40;;
44328;SDS011;30039;51.462;6.892;2024-02-26T06:57:07;6.38;;;2.60;;
44328;SDS011;30039;51.462;6.892;2024-02-26T06:59:55;5.07;;;2.50;;
44328;SDS011;30039;51.462;6.892;2024-02-26T07:02:41;4.97;;;2.63;;
44328;SDS011;30039;51.462;6.892;2024-02-26T07:05:26;4.10;;;2.25;;
44328;SDS011;30039;51.462;6.892;2024-02-26T07:08:12;3.75;;;2.53;;
44328;SDS011;30039;51.462;6.892;2024-02-26T07:10:58;4.75;;;2.60;;
44328;SDS011;30039;51.462;6.892;2024-02-26T07:13:43;3.88;;;2.40;;
44328;SDS011;30039;51.462;6.892;2024-02-26T07:16:29;4.95;;;2.67;;
44328;SDS011;30039;51.462;6.892;2024-02-26T07:19:14;4.72;;;2.03;;
44328;SDS011;30039;51.462;6.892;2024-02-26T07:22:00;3.10;;;1.98;;
44328;SDS011;30039;51.462;6.892;2024-02-26T07:24:48;3.20;;;2.05;;
44328;SDS011;30039;51.462;6.892;2024-02-26T07:27:36;2.63;;;2.05;;
44328;SDS011;30039;51.462;6.892;2024-02-26T07:30:21;8.77;;;2.58;;
44328;SDS011;30039;51.462;6.892;2024-02-26T07:33:07;3.65;;;2.17;;
44328;SDS011;30039;51.462;6.892;2024-02-26T07:35:52;4.65;;;2.40;;
44328;SDS011;30039;51.462;6.892;2024-02-26T07:38:39;3.17;;;2.20;;
44328;SDS011;30039;51.462;6.892;2024-02-26T07:41:24;6.55;;;1.95;;
44328;SDS011;30039;51.462;6.892;2024-02-26T07:44:10;3.05;;;2.38;;
44328;SDS011;30039;51.462;6.892;2024-02-26T07:46:56;5.53;;;2.30;;
44328;SDS011;30039;51.462;6.892;2024-02-26T07:49:41;3.63;;;2.40;;
44328;SDS011;30039;51.462;6.892;2024-02-26T07:52:27;4.10;;;2.70;;
44328;SDS011;30039;51.462;6.892;2024-02-26T07:55:12;5.55;;;2.47;;
44328;SDS011;30039;51.462;6.892;2024-02-26T07:57:58;4.20;;;2.70;;
44328;SDS011;30039;51.462;6.892;2024-02-26T08:00:43;5.97;;;2.72;;
44328;SDS011;30039;51.462;6.892;2024-02-26T08:03:31;4.60;;;2.72;;
44328;SDS011;30039;51.462;6.892;2024-02-26T08:06:17;5.22;;;2.83;;
44328;SDS011;30039;51.462;6.892;2024-02-26T08:09:02;5.00;;;2.70;;
44328;SDS011;30039;51.462;6.892;2024-02-26T08:11:49;5.10;;;3.00;;
44328;SDS011;30039;51.462;6.892;2024-02-26T08:14:35;4.20;;;2.63;;
44328;SDS011;30039;51.462;6.892;2024-02-26T08:17:20;6.63;;;2.63;;
44328;SDS011;30039;51.462;6.892;2024-02-26T08:20:06;6.00;;;3.00;;
44328;SDS011;30039;51.462;6.892;2024-02-26T08:22:52;7.45;;;2.95;;
44328;SDS011;30039;51.462;6.892;2024-02-26T08:25:37;4.40;;;2.92;;
44328;SDS011;30039;51.462;6.892;2024-02-26T08:28:23;6.90;;;2.97;;
44328;SDS011;30039;51.462;6.892;2024-02-26T08:31:08;5.97;;;2.70;;
44328;SDS011;30039;51.462;6.892;2024-02-26T08:33:54;4.28;;;2.85;;
44328;SDS011;30039;51.462;6.892;2024-02-26T08:36:39;4.13;;;2.95;;
44328;SDS011;30039;51.462;6.892;2024-02-26T08:39:25;4.78;;;2.90;;
44328;SDS011;30039;51.462;6.892;2024-02-26T08:42:11;4.65;;;2.65;;
44328;SDS011;30039;51.462;6.892;2024-02-26T08:44:56;5.28;;;2.78;;
44328;SDS011;30039;51.462;6.892;2024-02-26T08:47:44;5.50;;;3.28;;
44328;SDS011;30039;51.462;6.892;2024-02-26T08:50:30;4.40;;;2.78;;
44328;SDS011;30039;51.462;6.892;2024-02-26T08:53:16;4.28;;;2.70;;
44328;SDS011;30039;51.462;6.892;2024-02-26T08:56:02;4.18;;;2.67;;
44328;SDS011;30039;51.462;6.892;2024-02-26T08:58:47;4.85;;;3.13;;
44328;SDS011;30039;51.462;6.892;2024-02-26T09:01:38;3.60;;;2.20;;
44328;SDS011;30039;51.462;6.892;2024-02-26T09:04:24;4.57;;;2.80;;
44328;SDS011;30039;51.462;6.892;2024-02-26T09:07:09;5.88;;;2.67;;
44328;SDS011;30039;51.462;6.892;2024-02-26T09:09:55;3.92;;;2.60;;
44328;SDS011;30039;51.462;6.892;2024-02-26T09:12:41;7.00;;;3.00;;
44328;SDS011;30039;51.462;6.892;2024-02-26T09:15:26;5.28;;;3.25;;
44328;SDS011;30039;51.462;6.892;2024-02-26T09:18:12;5.53;;;3.05;;
44328;SDS011;30039;51.462;6.892;2024-02-26T09:20:58;5.13;;;3.05;;
44328;SDS011;30039;51.462;6.892;2024-02-26T09:23:44;5.65;;;3.13;;
44328;SDS011;30039;51.462;6.892;2024-02-26T09:26:29;5.47;;;3.58;;
44328;SDS011;30039;51.462;6.892;2024-02-26T09:29:15;5.38;;;3.20;;
44328;SDS011;30039;51.462;6.892;2024-02-26T09:32:00;5.65;;;3.05;;
44328;SDS011;30039;51.462;6.892;2024-02-26T09:34:46;5.05;;;3.22;;
44328;SDS011;30039;51.462;6.892;2024-02-26T09:37:31;6.13;;;3.00;;
44328;SDS011;30039;51.462;6.892;2024-02-26T09:40:18;6.43;;;2.80;;
44328;SDS011;30039;51.462;6.892;2024-02-26T09:43:04;5.18;;;3.33;;
44328;SDS011;30039;51.462;6.892;2024-02-26T09:45:50;4.78;;;3.20;;
44328;SDS011;30039;51.462;6.892;2024-02-26T09:48:36;3.92;;;2.78;;
44328;SDS011;30039;51.462;6.892;2024-02-26T09:51:22;4.82;;;3.10;;
44328;SDS011;30039;51.462;6.892;2024-02-26T09:54:09;4.38;;;2.90;;
44328;SDS011;30039;51.462;6.892;2024-02-26T09:56:55;3.78;;;2.70;;
44328;SDS011;30039;51.462;6.892;2024-02-26T09:59:43;3.95;;;2.53;;
44328;SDS011;30039;51.462;6.892;2024-02-26T10:02:28;3.85;;;2.70;;
44328;SDS011;30039;51.462;6.892;2024-02-26T10:05:16;6.78;;;3.03;;
44328;SDS011;30039;51.462;6.892;2024-02-26T10:08:02;4.53;;;2.95;;
44328;SDS011;30039;51.462;6.892;2024-02-26T10:10:49;6.63;;;3.22;;
44328;SDS011;30039;51.462;6.892;2024-02-26T10:13:35;5.85;;;3.25;;
44328;SDS011;30039;51.462;6.892;2024-02-26T10:16:24;4.35;;;3.10;;
44328;SDS011;30039;51.462;6.892;2024-02-26T10:19:10;4.43;;;2.95;;
44328;SDS011;30039;51.462;6.892;2024-02-26T10:22:09;4.20;;;2.70;;
44328;SDS011;30039;51.462;6.892;2024-02-26T10:24:55;7.03;;;3.28;;
44328;SDS011;30039;51.462;6.892;2024-02-26T10:27:41;8.88;;;3.15;;
44328;SDS011;30039;51.462;6.892;2024-02-26T10:30:29;5.65;;;3.65;;
44328;SDS011;30039;51.462;6.892;2024-02-26T10:33:15;5.82;;;3.63;;
44328;SDS011;30039;51.462;6.892;2024-02-26T10:36:01;6.20;;;3.75;;
44328;SDS011;30039;51.462;6.892;2024-02-26T10:38:47;7.25;;;4.05;;
44328;SDS011;30039;51.462;6.892;2024-02-26T10:41:33;4.97;;;3.03;;
44328;SDS011;30039;51.462;6.892;2024-02-26T10:44:19;4.47;;;3.10;;
44328;SDS011;30039;51.462;6.892;2024-02-26T10:47:07;5.88;;;3.40;;
44328;SDS011;30039;51.462;6.892;2024-02-26T10:49:53;4.60;;;3.10;;
44328;SDS011;30039;51.462;6.892;2024-02-26T10:52:39;7.45;;;3.58;;
44328;SDS011;30039;51.462;6.892;2024-02-26T10:55:31;6.07;;;3.30;;
44328;SDS011;30039;51.462;6.892;2024-02-26T10:58:21;5.57;;;3.13;;
44328;SDS011;30039;51.462;6.892;2024-02-26T11:01:10;6.75;;;3.70;;
44328;SDS011;30039;51.462;6.892;2024-02-26T11:04:04;6.07;;;3.58;;
44328;SDS011;30039;51.462;6.892;2024-02-26T11:06:55;5.13;;;2.95;;
44328;SDS011;30039;51.462;6.892;2024-02-26T11:09:46;6.85;;;3.55;;
44328;SDS011;30039;51.462;6.892;2024-02-26T11:12:37;6.25;;;3.55;;
44328;SDS011;30039;51.462;6.892;2024-02-26T11:15:24;6.22;;;3.42;;
44328;SDS011;30039;51.462;6.892;2024-02-26T11:18:09;5.05;;;3.28;;
44328;SDS011;30039;51.462;6.892;2024-02-26T11:20:55;5.63;;;3.22;;
44328;SDS011;30039;51.462;6.892;2024-02-26T11:23:42;8.30;;;3.65;;
44328;SDS011;30039;51.462;6.892;2024-02-26T11:26:28;8.85;;;4.00;;
44328;SDS011;30039;51.462;6.892;2024-02-26T11:29:16;7.22;;;4.30;;
44328;SDS011;30039;51.462;6.892;2024-02-26T11:32:02;6.93;;;3.92;;
44328;SDS011;30039;51.462;6.892;2024-02-26T11:34:48;6.38;;;3.83;;
44328;SDS011;30039;51.462;6.892;2024-02-26T11:37:34;9.80;;;4.35;;
44328;SDS011;30039;51.462;6.892;2024-02-26T11:40:20;7.22;;;4.32;;
44328;SDS011;30039;51.462;6.892;2024-02-26T11:43:05;8.02;;;4.50;;
44328;SDS011;30039;51.462;6.892;2024-02-26T11:45:51;8.70;;;4.97;;
44328;SDS011;30039;51.462;6.892;2024-02-26T11:48:38;7.20;;;4.20;;
44328;SDS011;30039;51.462;6.892;2024-02-26T11:51:27;5.60;;;4.03;;
44328;SDS011;30039;51.462;6.892;2024-02-26T11:54:13;9.93;;;4.68;;
44328;SDS011;30039;51.462;6.892;2024-02-26T12:00:14;6.65;;;4.60;;
44328;SDS011;30039;51.462;6.892;2024-02-26T12:03:01;7.95;;;4.70;;
44328;SDS011;30039;51.462;6.892;2024-02-26T12:05:51;9.10;;;4.80;;
44328;SDS011;30039;51.462;6.892;2024-02-26T12:08:39;9.07;;;5.10;;
44328;SDS011;30039;51.462;6.892;2024-02-26T12:11:27;6.90;;;4.72;;
44328;SDS011;30039;51.462;6.892;2024-02-26T12:14:12;6.90;;;5.07;;
44328;SDS011;30039;51.462;6.892;2024-02-26T12:16:58;8.68;;;5.25;;
44328;SDS011;30039;51.462;6.892;2024-02-26T12:19:44;6.90;;;4.50;;
44328;SDS011;30039;51.462;6.892;2024-02-26T12:22:30;8.15;;;4.80;;
44328;SDS011;30039;51.462;6.892;2024-02-26T12:25:16;8.70;;;4.78;;
44328;SDS011;30039;51.462;6.892;2024-02-26T12:28:01;9.52;;;5.57;;
44328;SDS011;30039;51.462;6.892;2024-02-26T12:30:47;8.40;;;4.80;;
44328;SDS011;30039;51.462;6.892;2024-02-26T12:33:32;11.75;;;5.30;;
44328;SDS011;30039;51.462;6.892;2024-02-26T12:36:19;9.82;;;4.72;;
44328;SDS011;30039;51.462;6.892;2024-02-26T12:39:05;9.88;;;5.38;;
44328;SDS011;30039;51.462;6.892;2024-02-26T12:41:51;9.40;;;5.05;;
44328;SDS011;30039;51.462;6.892;2024-02-26T12:44:37;8.20;;;5.18;;
44328;SDS011;30039;51.462;6.892;2024-02-26T12:47:22;8.95;;;5.32;;
44328;SDS011;30039;51.462;6.892;2024-02-26T12:50:08;10.30;;;5.10;;
44328;SDS011;30039;51.462;6.892;2024-02-26T12:52:54;9.50;;;5.28;;
44328;SDS011;30039;51.462;6.892;2024-02-26T12:55:40;8.98;;;5.30;;
44328;SDS011;30039;51.462;6.892;2024-02-26T12:58:26;8.68;;;5.43;;
44328;SDS011;30039;51.462;6.892;2024-02-26T13:01:17;7.95;;;4.85;;
44328;SDS011;30039;51.462;6.892;2024-02-26T13:04:03;9.65;;;4.78;;
44328;SDS011;30039;51.462;6.892;2024-02-26T13:06:51;7.90;;;4.70;;
44328;SDS011;30039;51.462;6.892;2024-02-26T13:09:37;6.22;;;4.15;;
44328;SDS011;30039;51.462;6.892;2024-02-26T13:12:23;9.30;;;4.88;;
44328;SDS011;30039;51.462;6.892;2024-02-26T13:15:09;7.72;;;4.50;;
44328;SDS011;30039;51.462;6.892;2024-02-26T13:17:59;8.25;;;4.88;;
44328;SDS011;30039;51.462;6.892;2024-02-26T13:20:54;7.38;;;4.63;;
44328;SDS011;30039;51.462;6.892;2024-02-26T13:23:39;6.78;;;3.78;;
44328;SDS011;30039;51.462;6.892;2024-02-26T13:26:25;6.90;;;4.50;;
44328;SDS011;30039;51.462;6.892;2024-02-26T13:29:20;6.80;;;4.03;;
44328;SDS011;30039;51.462;6.892;2024-02-26T13:32:06;7.50;;;4.05;;
44328;SDS011;30039;51.462;6.892;2024-02-26T13:34:52;6.70;;;4.18;;
44328;SDS011;30039;51.462;6.892;2024-02-26T13:37:49;7.28;;;3.50;;
44328;SDS011;30039;51.462;6.892;2024-02-26T13:40:34;6.95;;;3.88;;
44328;SDS011;30039;51.462;6.892;2024-02-26T13:43:20;6.15;;;3.50;;
44328;SDS011;30039;51.462;6.892;2024-02-26T13:46:06;6.32;;;3.00;;
44328;SDS011;30039;51.462;6.892;2024-02-26T13:48:53;5.47;;;3.30;;
44328;SDS011;30039;51.462;6.892;2024-02-26T13:51:40;5.50;;;3.40;;
44328;SDS011;30039;51.462;6.892;2024-02-26T13:54:25;7.15;;;3.65;;
44328;SDS011;30039;51.462;6.892;2024-02-26T13:57:11;6.32;;;3.20;;
44328;SDS011;30039;51.462;6.892;2024-02-26T13:59:57;5.53;;;3.33;;
44328;SDS011;30039;51.462;6.892;2024-02-26T14:02:42;5.18;;;3.17;;
44328;SDS011;30039;51.462;6.892;2024-02-26T14:05:28;5.15;;;3.40;;
44328;SDS011;30039;51.462;6.892;2024-02-26T14:08:25;5.78;;;3.30;;
44328;SDS011;30039;51.462;6.892;2024-02-26T14:11:26;5.90;;;3.72;;
44328;SDS011;30039;51.462;6.892;2024-02-26T14:14:14;5.38;;;3.08;;
44328;SDS011;30039;51.462;6.892;2024-02-26T14:17:00;6.10;;;3.35;;
44328;SDS011;30039;51.462;6.892;2024-02-26T14:19:46;5.22;;;2.90;;
44328;SDS011;30039;51.462;6.892;2024-02-26T14:22:33;7.30;;;3.20;;
44328;SDS011;30039;51.462;6.892;2024-02-26T14:25:19;5.97;;;3.60;;
44328;SDS011;30039;51.462;6.892;2024-02-26T14:28:05;4.32;;;3.05;;
44328;SDS011;30039;51.462;6.892;2024-02-26T14:30:51;4.93;;;3.10;;
44328;SDS011;30039;51.462;6.892;2024-02-26T14:33:39;5.70;;;3.28;;
44328;SDS011;30039;51.462;6.892;2024-02-26T14:36:28;5.15;;;3.35;;
44328;SDS011;30039;51.462;6.892;2024-02-26T14:39:14;5.85;;;3.00;;
44328;SDS011;30039;51.462;6.892;2024-02-26T14:42:00;5.93;;;3.30;;
44328;SDS011;30039;51.462;6.892;2024-02-26T14:44:46;6.80;;;3.60;;
44328;SDS011;30039;51.462;6.892;2024-02-26T14:47:32;4.80;;;3.33;;
44328;SDS011;30039;51.462;6.892;2024-02-26T14:50:18;5.40;;;3.40;;
44328;SDS011;30039;51.462;6.892;2024-02-26T14:53:04;5.75;;;2.90;;
44328;SDS011;30039;51.462;6.892;2024-02-26T14:55:49;6.43;;;2.85;;
44328;SDS011;30039;51.462;6.892;2024-02-26T14:58:36;5.72;;;3.35;;
44328;SDS011;30039;51.462;6.892;2024-02-26T15:01:23;5.85;;;3.45;;
44328;SDS011;30039;51.462;6.892;2024-02-26T15:04:09;4.55;;;2.80;;
44328;SDS011;30039;51.462;6.892;2024-02-26T15:06:55;4.90;;;2.97;;
44328;SDS011;30039;51.462;6.892;2024-02-26T15:09:40;4.45;;;3.03;;
44328;SDS011;30039;51.462;6.892;2024-02-26T15:12:26;5.72;;;2.70;;
44328;SDS011;30039;51.462;6.892;2024-02-26T15:15:13;3.78;;;2.80;;
44328;SDS011;30039;51.462;6.892;2024-02-26T15:17:58;4.10;;;2.40;;
44328;SDS011;30039;51.462;6.892;2024-02-26T15:20:44;3.88;;;2.60;;
44328;SDS011;30039;51.462;6.892;2024-02-26T15:23:30;3.97;;;2.30;;
44328;SDS011;30039;51.462;6.892;2024-02-26T15:26:17;3.42;;;2.63;;
44328;SDS011;30039;51.462;6.892;2024-02-26T15:29:03;4.13;;;2.60;;
44328;SDS011;30039;51.462;6.892;2024-02-26T15:31:48;5.30;;;2.55;;
44328;SDS011;30039;51.462;6.892;2024-02-26T15:34:34;4.15;;;2.38;;
44328;SDS011;30039;51.462;6.892;2024-02-26T15:37:19;4.50;;;2.65;;
44328;SDS011;30039;51.462;6.892;2024-02-26T15:40:05;4.65;;;2.63;;
44328;SDS011;30039;51.462;6.892;2024-02-26T15:42:52;4.07;;;2.90;;
44328;SDS011;30039;51.462;6.892;2024-02-26T15:45:37;3.40;;;2.28;;
44328;SDS011;30039;51.462;6.892;2024-02-26T15:48:23;3.10;;;2.35;;
44328;SDS011;30039;51.462;6.892;2024-02-26T15:51:17;6.45;;;2.55;;
44328;SDS011;30039;51.462;6.892;2024-02-26T15:54:03;4.28;;;2.95;;
44328;SDS011;30039;51.462;6.892;2024-02-26T15:56:48;4.78;;;2.67;;
44328;SDS011;30039;51.462;6.892;2024-02-26T15:59:34;5.00;;;2.67;;
44328;SDS011;30039;51.462;6.892;2024-02-26T16:02:19;4.43;;;2.58;;
44328;SDS011;30039;51.462;6.892;2024-02-26T16:05:09;4.75;;;3.55;;
44328;SDS011;30039;51.462;6.892;2024-02-26T16:07:57;5.82;;;3.38;;
44328;SDS011;30039;51.462;6.892;2024-02-26T16:10:45;6.30;;;3.20;;
44328;SDS011;30039;51.462;6.892;2024-02-26T16:13:30;4.32;;;3.03;;
44328;SDS011;30039;51.462;6.892;2024-02-26T16:16:16;6.05;;;3.08;;
44328;SDS011;30039;51.462;6.892;2024-02-26T16:19:09;5.97;;;3.25;;
44328;SDS011;30039;51.462;6.892;2024-02-26T16:21:55;6.28;;;3.40;;
44328;SDS011;30039;51.462;6.892;2024-02-26T16:24:41;6.40;;;3.33;;
44328;SDS011;30039;51.462;6.892;2024-02-26T16:27:27;5.38;;;3.67;;
44328;SDS011;30039;51.462;6.892;2024-02-26T16:30:12;5.20;;;3.60;;
44328;SDS011;30039;51.462;6.892;2024-02-26T16:32:58;5.80;;;3.67;;
44328;SDS011;30039;51.462;6.892;2024-02-26T16:35:44;6.53;;;4.05;;
44328;SDS011;30039;51.462;6.892;2024-02-26T16:38:29;6.03;;;3.60;;
44328;SDS011;30039;51.462;6.892;2024-02-26T16:41:15;5.65;;;3.53;;
44328;SDS011;30039;51.462;6.892;2024-02-26T16:44:01;8.50;;;4.20;;
44328;SDS011;30039;51.462;6.892;2024-02-26T16:46:46;4.35;;;3.55;;